createdAt,value
2022-08-07T00:02:36.475Z,99041.05
2022-08-07T00:09:16.788Z,99040.27
2022-08-07T00:16:21.780Z,99035.42
2022-08-07T00:23:31.547Z,99042.06
2022-08-07T00:29:31.449Z,99048.59
2022-08-07T00:37:14.933Z,99044.79
2022-08-07T00:42:29.470Z,99048.44
2022-08-07T00:55:25.529Z,99052.92
2022-08-07T00:56:45.276Z,99047.15
2022-08-07T01:06:59.438Z,99044.42
2022-08-07T01:10:56.279Z,99043.77
2022-08-07T01:17:30.590Z,99051.93
2022-08-07T01:24:13.048Z,99052.94
2022-08-07T01:30:59.615Z,99061.52
2022-08-07T01:37:28.110Z,99054.52
2022-08-07T01:43:52.839Z,99050.84
2022-08-07T01:49:29.276Z,99044.45
2022-08-07T01:55:43.854Z,99043.08
2022-08-07T02:01:59.716Z,99032.98
2022-08-07T02:08:23.854Z,99035.68
2022-08-07T02:14:14.548Z,99044.92
2022-08-07T02:21:55.187Z,99043.34
2022-08-07T02:27:44.866Z,99047.98
2022-08-07T02:34:11.583Z,99052.09
2022-08-07T02:40:11.881Z,99047.25
2022-08-07T02:48:55.186Z,99052.55
2022-08-07T02:53:22.016Z,99046.17
2022-08-07T02:59:40.946Z,99048.27
2022-08-07T03:05:42.421Z,99050.10
2022-08-07T03:12:02.741Z,99046.73
2022-08-07T03:18:41.119Z,99046.11
2022-08-07T03:24:17.908Z,99049.24
2022-08-07T03:30:24.303Z,99049.25
2022-08-07T03:36:34.922Z,99049.24
2022-08-07T03:42:32.835Z,99047.85
2022-08-07T03:49:19.513Z,99050.52
2022-08-07T03:55:14.522Z,99051.86
2022-08-07T04:00:56.985Z,99053.38
2022-08-07T04:06:50.989Z,99055.05
2022-08-07T04:12:40.679Z,99061.33
2022-08-07T04:18:59.754Z,99065.67
2022-08-07T04:25:19.519Z,99068.49
2022-08-07T04:31:38.735Z,99071.51
2022-08-07T04:38:03.537Z,99073.65
2022-08-07T04:44:18.478Z,99074.45
2022-08-07T04:50:33.474Z,99078.92
2022-08-07T04:58:16.756Z,99074.10
2022-08-07T05:03:02.198Z,99079.98
2022-08-07T05:09:43.121Z,99083.71
2022-08-07T05:15:38.575Z,99087.92
2022-08-07T05:21:59.510Z,99102.71
2022-08-07T05:28:29.059Z,99106.40
2022-08-07T05:34:26.319Z,99104.91
2022-08-07T05:40:26.475Z,99111.00
2022-08-07T05:52:52.285Z,99108.02
2022-08-07T05:59:05.218Z,99108.23
2022-08-07T06:05:07.619Z,99105.60
2022-08-07T06:11:43.073Z,99110.45
2022-08-07T06:17:53.509Z,99108.13
2022-08-07T06:23:46.791Z,99109.15
2022-08-07T06:29:39.060Z,99107.14
2022-08-07T06:42:33.069Z,99110.31
2022-08-07T06:45:02.602Z,99108.55
2022-08-07T06:48:31.254Z,99117.55
2022-08-07T06:55:32.525Z,99118.90
2022-08-07T07:02:49.280Z,99119.83
2022-08-07T07:07:01.186Z,99120.07
2022-08-07T07:13:06.545Z,99119.26
2022-08-07T07:19:16.196Z,99119.39
2022-08-07T07:26:30.773Z,99122.09
2022-08-07T07:31:23.661Z,99120.38
2022-08-07T07:37:21.558Z,99120.16
2022-08-07T07:44:14.613Z,99112.21
2022-08-07T07:50:33.699Z,99106.48
2022-08-07T07:55:37.074Z,99114.27
2022-08-07T08:02:02.299Z,99111.26
2022-08-07T08:07:42.335Z,99109.64
2022-08-07T08:13:54.754Z,99103.70
2022-08-07T08:20:17.810Z,99108.59
2022-08-07T08:26:12.555Z,99111.52
2022-08-07T08:32:17.550Z,99112.75
2022-08-07T08:38:01.338Z,99112.67
2022-08-07T08:44:13.700Z,99109.55
2022-08-07T08:50:06.134Z,99105.60
2022-08-07T08:55:58.811Z,99106.40
2022-08-07T09:02:08.732Z,99108.32
2022-08-07T09:07:58.085Z,99114.28
2022-08-07T09:14:27.479Z,99109.56
2022-08-07T09:20:42.279Z,99104.12
2022-08-07T09:27:13.478Z,99102.39
2022-08-07T09:33:24.432Z,99096.36
2022-08-07T09:39:55.454Z,99095.73
2022-08-07T09:47:51.541Z,99100.55
2022-08-07T09:52:10.726Z,99099.89
2022-08-07T09:58:16.165Z,99094.14
2022-08-07T10:04:06.536Z,99090.35
2022-08-07T10:10:22.802Z,99082.30
2022-08-07T10:16:33.954Z,99078.98
2022-08-07T10:24:21.335Z,99072.72
2022-08-07T10:28:55.634Z,99067.02
2022-08-07T10:35:56.710Z,99062.53
2022-08-07T10:41:47.370Z,99055.48
2022-08-07T10:47:53.728Z,99052.70
2022-08-07T10:53:49.097Z,99047.73
2022-08-07T11:00:39.258Z,99044.14
2022-08-07T11:06:44.442Z,99027.88
2022-08-07T11:12:44.744Z,99020.00
2022-08-07T11:18:41.813Z,99015.30
2022-08-07T11:24:58.455Z,99015.95
2022-08-07T11:30:46.159Z,99014.23
2022-08-07T11:36:47.684Z,99013.03
2022-08-07T11:42:43.243Z,99007.45
2022-08-07T11:49:51.392Z,99006.02
2022-08-07T11:56:08.592Z,98998.09
2022-08-07T12:01:25.526Z,98989.79
2022-08-07T12:08:25.466Z,98987.52
2022-08-07T12:14:07.413Z,98979.74
2022-08-07T12:20:14.051Z,98972.66
2022-08-07T12:26:42.027Z,98973.26
2022-08-07T12:32:52.229Z,98974.77
2022-08-07T12:38:42.524Z,98972.64
2022-08-07T12:44:19.414Z,98970.55
2022-08-07T12:50:34.095Z,98960.55
2022-08-07T12:56:11.353Z,98957.75
2022-08-07T13:01:59.626Z,98951.92
2022-08-07T13:08:12.537Z,98940.96
2022-08-07T13:14:17.148Z,98935.76
2022-08-07T13:20:01.180Z,98929.23
2022-08-07T13:25:41.809Z,98923.45
2022-08-07T13:31:32.160Z,98920.95
2022-08-07T13:37:26.720Z,98925.89
2022-08-07T13:43:12.070Z,98920.90
2022-08-07T13:48:41.041Z,98916.02
2022-08-07T13:54:22.675Z,98913.19
2022-08-07T14:00:03.306Z,98908.70
2022-08-07T14:05:41.809Z,98899.41
2022-08-07T14:11:15.426Z,98897.85
2022-08-07T14:16:50.476Z,98899.57
2022-08-07T14:22:46.257Z,98897.14
2022-08-07T14:28:55.888Z,98894.73
2022-08-07T14:34:10.203Z,98885.02
2022-08-07T14:40:15.847Z,98877.17
2022-08-07T14:45:46.688Z,98870.23
2022-08-07T14:51:22.726Z,98870.42
2022-08-07T14:56:51.666Z,98866.02
2022-08-07T15:02:34.124Z,98862.90
2022-08-07T15:08:05.928Z,98856.77
2022-08-07T15:13:43.700Z,98853.06
2022-08-07T15:19:11.310Z,98850.61
2022-08-07T15:25:14.899Z,98844.66
2022-08-07T15:31:05.179Z,98839.58
2022-08-07T15:37:02.691Z,98834.85
2022-08-07T15:42:44.931Z,98831.60
2022-08-07T15:48:12.615Z,98835.20
2022-08-07T15:53:51.678Z,98834.77
2022-08-07T15:59:39.697Z,98833.48
2022-08-07T16:05:31.382Z,98827.68
2022-08-07T16:11:26.981Z,98818.48
2022-08-07T16:18:01.866Z,98814.58
2022-08-07T16:23:59.402Z,98812.66
2022-08-07T16:30:10.983Z,98815.47
2022-08-07T16:35:58.781Z,98810.66
2022-08-07T16:41:48.725Z,98816.44
2022-08-07T16:47:56.945Z,98815.02
2022-08-07T16:54:02.016Z,98815.17
2022-08-07T16:59:57.206Z,98817.74
2022-08-07T17:06:22.449Z,98819.91
2022-08-07T17:12:04.476Z,98820.52
2022-08-07T17:17:50.403Z,98817.90
2022-08-07T17:23:51.228Z,98820.09
2022-08-07T17:30:13.969Z,98826.48
2022-08-07T17:36:00.361Z,98834.48
2022-08-07T17:42:06.719Z,98834.67
2022-08-07T17:48:11.266Z,98835.27
2022-08-07T17:53:59.947Z,98839.78
2022-08-07T17:59:43.103Z,98841.77
2022-08-07T18:05:22.279Z,98851.84
2022-08-07T18:12:07.797Z,98853.80
2022-08-07T18:18:46.719Z,98858.40
2022-08-07T18:24:07.316Z,98864.09
2022-08-07T18:30:07.659Z,98868.39
2022-08-07T18:36:10.745Z,98868.64
2022-08-07T18:42:42.473Z,98869.36
2022-08-07T18:50:30.572Z,98873.80
2022-08-07T18:55:41.974Z,98872.09
2022-08-07T19:02:32.623Z,98877.06
2022-08-07T19:08:28.805Z,98886.41
2022-08-07T19:14:32.420Z,98885.04
2022-08-07T19:20:29.791Z,98891.55
2022-08-07T19:26:25.143Z,98892.30
2022-08-07T19:32:17.169Z,98895.91
2022-08-07T19:38:15.103Z,98895.08
2022-08-07T19:43:56.807Z,98900.11
2022-08-07T19:50:02.602Z,98905.72
2022-08-07T19:55:57.507Z,98913.07
2022-08-07T20:01:58.050Z,98914.92
2022-08-07T20:07:47.795Z,98912.95
2022-08-07T20:13:32.170Z,98916.52
2022-08-07T20:19:58.285Z,98921.27
2022-08-07T20:26:32.425Z,98921.27
2022-08-07T20:33:04.923Z,98915.35
2022-08-07T21:12:16.368Z,98931.76
2022-08-07T21:18:46.034Z,98931.42
2022-08-07T21:25:12.927Z,98927.10
2022-08-07T21:31:49.171Z,98926.84
2022-08-07T21:37:58.714Z,98935.45
2022-08-07T21:46:03.548Z,98933.05
2022-08-07T21:52:43.223Z,98931.23
2022-08-07T22:00:05.152Z,98933.27
2022-08-07T23:56:38.810Z,98904.75
